Hundvaag 1 weather for Mar 2004
Month no. 201
Obs.
Da.
Temp. Dew Point Precip. Wind
Speed
Wind gusts Cloud cover Press. Humidity Wind dir. Sunny OPT
01.03.2004 4,5   0,4 17,0   0 1006,9 93,0 112,5   47,5 %
02.03.2004 5,7   1,0 16,0   2 1019,8 100,0 112,5 1 55,0 %
03.03.2004 3,2   0,0 12,0   0 1020,7 65,0 180,0 1 50,0 %
04.03.2004 -1,2   0,0 16,0   9 1022,0 52,0 135,0 1 65,0 %
05.03.2004 0,4   0,0 20,0   0 1021,3 69,0 135,0   42,5 %
06.03.2004 -2,1   0,2 2,0   8 1026,5 92,0 45,0 1 72,5 %
07.03.2004 -3,7   0,0 1,0   10 1020,2 100,0 45,0 1 75,0 %
08.03.2004 -0,9   0,0 1,0   7 1025,9 100,0   1 70,0 %
09.03.2004 -0,9   0,0 1,0   10 1027,7 76,0   1 77,5 %
10.03.2004 0,1   0,0 2,0   10 1028,0 83,0   1 80,0 %
11.03.2004 0,7   0,0 3,0   9 1024,4 63,0 90,0 1 77,5 %
12.03.2004 3,0   0,0 16,0   2 1020,3 60,0 112,5 1 52,5 %
13.03.2004 4,8   0,0 9,0   0 1014,6 56,0 90,0   52,5 %
14.03.2004 7,6   4,0 24,0   3 1011,9 87,0 157,5 1 52,5 %
15.03.2004 6,4   10,3 16,0   1 1006,6 87,0 180,0 1 45,0 %
16.03.2004 7,2   8,5 12,0   0 1012,7 87,0 202,5   47,5 %
17.03.2004 7,2   1,8 12,0   0 1013,9 87,0 202,5   52,5 %
18.03.2004 5,4   0,0 9,0   9 1015,3 87,0 225,0 1 77,5 %
19.03.2004 5,7   11,5 17,0   1 1006,0 87,0 202,5   45,0 %
20.03.2004 5,3   5,3 14,0   1 993,5 87,0 270,0 1 52,5 %
21.03.2004 6,0   1,0 10,0   2 994,6 81,0 247,5 1 60,0 %
22.03.2004 4,1   1,5 8,0   0 1000,1 93,0 315,0 1 52,5 %
23.03.2004 1,4   0,5 3,0   0 1009,4 100,0   1 55,0 %
24.03.2004 1,6   0,0 5,0   0 1017,0 100,0 157,5   52,5 %
25.03.2004 2,7   0,0 3,0   9 1016,8 87,0   1 80,0 %
26.03.2004 -1,5   0,0 1,0   10 1017,8 100,0 22,5 1 77,5 %
27.03.2004 7,4   0,9 13,0   0 1009,9 100,0 270,0 1 52,5 %
28.03.2004 7,0   0,6 8,0   5 1006,6 76,0 180,0 1 67,5 %
29.03.2004 6,1   0,0 6,0   0 1013,3 93,0 202,5 1 57,5 %
30.03.2004 2,7   0,0 2,0   0 1020,1 100,0 90,0 1 57,5 %
31.03.2004 3,1   0,0 0,0   10 1018,7 93,0   1 82,5 %
Avrg/Sum 3,2   47,5 9,0   3,8 1014,9 85,2 159,3 24 60,8 %